createdAt,value
2022-12-11T00:00:12.268Z,15.85
2022-12-11T00:02:39.263Z,18.70
2022-12-11T00:05:06.471Z,14.40
2022-12-11T00:07:33.369Z,22.27
2022-12-11T00:10:01.150Z,14.93
2022-12-11T00:12:31.743Z,21.38
2022-12-11T00:14:58.749Z,19.02
2022-12-11T00:17:25.715Z,25.52
2022-12-11T00:19:52.573Z,25.40
2022-12-11T00:22:19.549Z,18.45
2022-12-11T00:24:46.422Z,27.13
2022-12-11T00:27:13.380Z,27.05
2022-12-11T00:29:40.383Z,22.20
2022-12-11T00:32:07.304Z,26.88
2022-12-11T00:34:34.562Z,25.13
2022-12-11T00:37:02.576Z,24.30
2022-12-11T00:39:29.544Z,25.73
2022-12-11T00:41:56.659Z,24.15
2022-12-11T00:44:23.767Z,25.33
2022-12-11T00:46:50.691Z,23.63
2022-12-11T00:49:17.592Z,21.98
2022-12-11T00:51:44.540Z,23.73
2022-12-11T00:54:11.546Z,25.40
2022-12-11T00:56:38.420Z,26.88
2022-12-11T00:59:05.440Z,22.38
2022-12-11T01:01:32.736Z,24.35
2022-12-11T01:03:59.798Z,23.98
2022-12-11T01:06:28.275Z,21.08
2022-12-11T01:09:14.856Z,21.25
2022-12-11T01:11:43.408Z,24.50
2022-12-11T01:14:13.567Z,20.75
2022-12-11T01:16:40.611Z,24.27
2022-12-11T01:19:07.568Z,20.92
2022-12-11T01:21:34.459Z,16.63
2022-12-11T01:24:01.480Z,23.60
2022-12-11T01:26:28.730Z,20.08
2022-12-11T01:28:55.637Z,25.20
2022-12-11T01:31:22.593Z,20.58
2022-12-11T01:33:49.702Z,21.30
2022-12-11T01:36:21.632Z,29.92
2022-12-11T01:38:49.645Z,20.98
2022-12-11T01:41:18.183Z,22.13
2022-12-11T01:44:05.839Z,21.58
2022-12-11T01:46:35.699Z,23.25
2022-12-11T01:49:07.519Z,26.40
2022-12-11T01:51:40.903Z,21.60
2022-12-11T01:54:11.779Z,24.08
2022-12-11T01:56:41.501Z,20.88
2022-12-11T01:59:10.301Z,28.63
2022-12-11T02:01:42.554Z,22.60
2022-12-11T02:04:11.134Z,23.65
2022-12-11T02:06:41.572Z,26.25
2022-12-11T02:09:12.962Z,23.85
2022-12-11T02:11:51.869Z,22.48
2022-12-11T02:14:48.083Z,29.52
2022-12-11T02:17:21.979Z,24.65
2022-12-11T02:20:04.164Z,25.90
2022-12-11T02:22:51.837Z,29.70
2022-12-11T02:25:27.489Z,26.67
2022-12-11T02:28:19.451Z,30.58
2022-12-11T02:31:08.683Z,23.05
2022-12-11T02:33:56.964Z,22.58
2022-12-11T02:36:26.915Z,22.00
2022-12-11T02:38:57.116Z,26.38
2022-12-11T02:41:26.270Z,28.95
2022-12-11T02:43:57.240Z,23.13
2022-12-11T02:46:26.314Z,30.65
2022-12-11T02:48:54.795Z,18.75
2022-12-11T02:51:28.296Z,25.10
2022-12-11T02:53:58.352Z,22.38
2022-12-11T02:56:38.394Z,23.92
2022-12-11T02:59:11.524Z,25.67
2022-12-11T03:01:38.646Z,31.05
2022-12-11T03:04:05.613Z,20.60
2022-12-11T03:06:37.101Z,46.65
2022-12-11T03:09:05.710Z,28.80
2022-12-11T03:11:32.665Z,24.38
2022-12-11T03:14:03.030Z,35.78
2022-12-11T03:16:36.476Z,31.35
2022-12-11T03:19:09.100Z,28.80
2022-12-11T03:21:58.863Z,22.27
2022-12-11T03:24:35.703Z,28.20
2022-12-11T03:29:45.261Z,18.67
2022-12-11T03:32:23.247Z,19.23
2022-12-11T03:34:58.467Z,19.55
2022-12-11T03:37:29.153Z,25.45
2022-12-11T03:40:02.616Z,22.35
2022-12-11T03:42:31.984Z,25.77
2022-12-11T03:45:02.671Z,23.02
2022-12-11T03:47:32.442Z,26.92
2022-12-11T03:50:01.604Z,25.27
2022-12-11T03:52:32.598Z,24.45
2022-12-11T03:55:02.972Z,30.02
2022-12-11T03:57:33.952Z,28.58
2022-12-11T04:00:00.948Z,27.38
2022-12-11T04:02:28.166Z,28.48
2022-12-11T04:04:55.084Z,29.33
2022-12-11T04:07:22.146Z,28.00
2022-12-11T04:09:49.086Z,23.05
2022-12-11T04:12:15.979Z,24.85
2022-12-11T04:15:01.436Z,19.88
2022-12-11T04:17:55.156Z,23.48
2022-12-11T04:20:41.134Z,21.88
2022-12-11T04:23:33.073Z,22.85
2022-12-11T04:26:15.731Z,20.77
2022-12-11T04:28:44.359Z,23.35
2022-12-11T04:31:17.007Z,32.78
2022-12-11T04:33:44.269Z,19.60
2022-12-11T04:36:12.430Z,17.50
2022-12-11T04:38:39.451Z,24.85
2022-12-11T04:41:09.848Z,23.08
2022-12-11T04:43:37.399Z,24.75
2022-12-11T04:46:13.982Z,23.08
2022-12-11T04:48:41.570Z,26.42
2022-12-11T04:51:09.840Z,16.60
2022-12-11T04:53:37.350Z,21.38
2022-12-11T04:56:09.606Z,20.83
2022-12-11T04:58:36.781Z,18.67
2022-12-11T05:01:12.219Z,24.50
2022-12-11T05:03:40.443Z,17.17
2022-12-11T05:06:08.469Z,21.10
2022-12-11T05:08:37.200Z,28.92
2022-12-11T05:11:06.854Z,19.58
2022-12-11T05:13:34.415Z,24.08
2022-12-11T05:16:04.644Z,18.90
2022-12-11T05:18:31.611Z,20.50
2022-12-11T05:21:01.397Z,19.15
2022-12-11T05:23:28.950Z,23.92
2022-12-11T05:25:58.213Z,21.17
2022-12-11T05:28:26.756Z,18.65
2022-12-11T05:30:57.983Z,20.63
2022-12-11T05:33:25.700Z,23.65
2022-12-11T05:35:52.913Z,24.55
2022-12-11T05:38:20.470Z,19.95
2022-12-11T05:40:57.241Z,21.50
2022-12-11T05:45:50.898Z,29.33
2022-12-11T05:48:17.832Z,20.70
2022-12-11T05:50:44.780Z,22.67
2022-12-11T05:53:12.004Z,26.90
2022-12-11T05:55:38.912Z,20.30
2022-12-11T05:58:05.966Z,22.15
2022-12-11T06:00:36.032Z,19.67
2022-12-11T06:03:03.346Z,20.42
2022-12-11T06:05:30.398Z,23.60
2022-12-11T06:07:57.389Z,28.20
2022-12-11T06:10:24.320Z,25.00
2022-12-11T06:12:51.148Z,20.88
2022-12-11T06:15:18.130Z,25.05
2022-12-11T06:17:45.034Z,26.02
2022-12-11T06:20:12.103Z,23.55
2022-12-11T06:22:39.027Z,21.10
2022-12-11T06:25:06.533Z,25.40
2022-12-11T06:27:33.568Z,22.45
2022-12-11T06:30:00.473Z,28.42
2022-12-11T06:32:27.678Z,20.35
2022-12-11T06:34:54.570Z,20.73
2022-12-11T06:37:21.629Z,27.65
2022-12-11T06:39:48.482Z,23.60
2022-12-11T06:42:16.610Z,27.85
2022-12-11T06:44:43.659Z,27.00
2022-12-11T06:47:10.797Z,25.33
2022-12-11T06:49:37.750Z,28.98
2022-12-11T06:52:07.132Z,30.92
2022-12-11T06:54:34.035Z,26.08
2022-12-11T06:57:00.956Z,25.77
2022-12-11T06:59:27.891Z,32.63
2022-12-11T07:01:54.820Z,25.23
2022-12-11T07:04:24.858Z,25.05
2022-12-11T07:06:52.082Z,31.17
2022-12-11T07:09:19.741Z,29.38
2022-12-11T07:11:46.665Z,22.63
2022-12-11T07:14:13.604Z,29.55
2022-12-11T07:16:40.595Z,29.48
2022-12-11T07:19:07.649Z,32.00
2022-12-11T07:21:35.343Z,25.30
2022-12-11T07:24:02.241Z,25.95
2022-12-11T07:26:29.842Z,34.58
2022-12-11T07:28:58.887Z,29.25
2022-12-11T07:31:29.748Z,27.52
2022-12-11T07:34:03.364Z,32.72
2022-12-11T07:36:31.459Z,27.23
2022-12-11T07:39:00.562Z,32.60
2022-12-11T07:41:31.835Z,32.35
2022-12-11T07:44:00.853Z,25.60
2022-12-11T07:46:29.748Z,25.80
2022-12-11T07:48:56.808Z,25.70
2022-12-11T07:51:29.346Z,36.67
2022-12-11T07:53:59.437Z,25.95
2022-12-11T07:56:28.146Z,29.00
2022-12-11T07:58:55.614Z,34.00
2022-12-11T08:01:24.505Z,30.70
2022-12-11T08:03:51.614Z,24.55
2022-12-11T08:06:21.666Z,29.40
2022-12-11T08:08:48.676Z,29.23
2022-12-11T08:11:15.796Z,23.50
2022-12-11T08:13:44.530Z,30.17
2022-12-11T08:16:14.499Z,29.23
2022-12-11T08:18:42.707Z,41.00
2022-12-11T08:21:12.852Z,29.08
2022-12-11T08:23:40.043Z,31.98
2022-12-11T08:26:09.600Z,30.05
2022-12-11T08:28:37.734Z,29.55
2022-12-11T08:31:06.800Z,22.55
2022-12-11T08:33:34.680Z,27.85
2022-12-11T08:36:07.161Z,28.00
2022-12-11T08:38:34.967Z,28.67
2022-12-11T08:41:29.143Z,33.45
2022-12-11T08:43:57.680Z,26.05
2022-12-11T08:46:32.635Z,37.03
2022-12-11T08:49:00.166Z,28.75
2022-12-11T08:51:30.533Z,36.67
2022-12-11T08:54:00.951Z,28.20
2022-12-11T08:56:28.840Z,29.33
2022-12-11T08:59:00.771Z,23.83
2022-12-11T09:01:28.258Z,29.42
2022-12-11T09:03:56.702Z,27.33
2022-12-11T09:06:26.344Z,32.45
2022-12-11T09:08:54.010Z,30.08
2022-12-11T09:11:23.856Z,29.38
2022-12-11T09:13:51.095Z,27.60
2022-12-11T09:16:20.427Z,27.83
2022-12-11T09:18:50.091Z,31.90
2022-12-11T09:21:20.037Z,31.80
2022-12-11T09:23:47.800Z,27.02
2022-12-11T09:26:17.463Z,37.78
2022-12-11T09:28:46.942Z,34.17
2022-12-11T09:31:17.841Z,28.75
2022-12-11T09:33:45.843Z,32.72
2022-12-11T09:36:13.301Z,31.55
2022-12-11T09:38:40.780Z,24.52
2022-12-11T09:41:49.684Z,28.30
2022-12-11T09:44:38.377Z,29.42
2022-12-11T09:47:17.821Z,28.52
2022-12-11T09:49:46.744Z,32.67
2022-12-11T09:52:34.975Z,29.23
2022-12-11T09:55:10.347Z,33.95
2022-12-11T09:58:08.153Z,29.13
2022-12-11T10:01:01.127Z,29.17
2022-12-11T10:03:47.809Z,37.97
2022-12-11T10:06:28.464Z,32.35
2022-12-11T10:09:11.923Z,29.83
2022-12-11T10:12:12.249Z,32.65
2022-12-11T10:14:58.096Z,34.42
2022-12-11T10:17:37.565Z,28.65
2022-12-11T10:20:39.531Z,35.40
2022-12-11T10:23:09.479Z,30.23
2022-12-11T10:25:40.616Z,37.30
2022-12-11T10:28:19.434Z,39.22
2022-12-11T10:31:01.560Z,32.97
2022-12-11T10:33:50.098Z,27.98
2022-12-11T10:36:25.297Z,33.67
2022-12-11T10:38:52.342Z,32.67
2022-12-11T10:41:41.976Z,29.88
2022-12-11T10:44:41.435Z,30.88
2022-12-11T10:47:18.367Z,29.58
2022-12-11T10:49:56.739Z,35.47
2022-12-11T10:52:27.833Z,33.33
2022-12-11T10:55:03.123Z,28.40
2022-12-11T10:57:34.630Z,36.38
2022-12-11T11:00:04.787Z,32.05
2022-12-11T11:02:40.566Z,28.33
2022-12-11T11:05:28.630Z,30.03
2022-12-11T11:08:19.855Z,30.90
2022-12-11T11:10:51.682Z,36.60
2022-12-11T11:13:22.050Z,36.97
2022-12-11T11:15:50.155Z,34.38
2022-12-11T11:18:26.655Z,27.65
2022-12-11T11:20:54.486Z,35.80
2022-12-11T11:23:23.161Z,32.67
2022-12-11T11:25:58.682Z,32.63
2022-12-11T11:28:29.707Z,31.25
2022-12-11T11:31:05.077Z,41.40
2022-12-11T11:33:34.543Z,34.60
2022-12-11T11:36:05.436Z,30.02
2022-12-11T11:38:41.184Z,30.38
2022-12-11T11:41:21.168Z,28.63
2022-12-11T11:44:05.066Z,33.83
2022-12-11T11:46:38.129Z,27.63
2022-12-11T11:49:32.676Z,23.90
2022-12-11T11:52:12.492Z,21.85
2022-12-11T11:54:57.678Z,29.83
2022-12-11T11:57:39.096Z,29.13
2022-12-11T12:00:26.480Z,26.05
2022-12-11T12:03:03.657Z,32.38
2022-12-11T12:05:53.907Z,24.38
2022-12-11T12:08:27.909Z,23.92
2022-12-11T12:11:06.262Z,27.17
2022-12-11T12:14:22.553Z,24.88
2022-12-11T12:17:18.548Z,27.33
2022-12-11T12:20:11.915Z,23.85
2022-12-11T12:22:54.258Z,24.63
2022-12-11T12:25:30.160Z,22.38
2022-12-11T12:28:22.848Z,15.52
2022-12-11T12:31:05.929Z,23.13
2022-12-11T12:34:01.531Z,18.98
2022-12-11T12:37:01.212Z,20.23
2022-12-11T12:39:52.064Z,19.00
2022-12-11T12:42:56.282Z,19.23
2022-12-11T12:45:32.228Z,18.70
2022-12-11T12:47:59.688Z,19.95
2022-12-11T12:50:40.598Z,22.40
2022-12-11T12:53:09.882Z,17.50
2022-12-11T12:55:37.180Z,17.55
2022-12-11T12:58:06.762Z,25.23
2022-12-11T13:00:33.800Z,25.42
2022-12-11T13:03:14.971Z,19.17
2022-12-11T13:06:06.319Z,18.45
2022-12-11T13:08:47.458Z,19.15
2022-12-11T13:11:18.551Z,17.97
2022-12-11T13:14:28.196Z,16.35
2022-12-11T13:17:21.101Z,13.03
2022-12-11T13:20:03.387Z,14.97
2022-12-11T13:22:30.349Z,13.40
2022-12-11T13:25:04.307Z,15.87
2022-12-11T13:27:43.651Z,13.35
2022-12-11T13:30:16.619Z,13.07
2022-12-11T13:32:58.924Z,16.43
2022-12-11T13:35:26.659Z,15.30
2022-12-11T13:37:55.442Z,18.93
2022-12-11T13:40:28.869Z,17.35
2022-12-11T13:42:55.787Z,13.80
2022-12-11T13:45:28.433Z,13.27
2022-12-11T13:47:57.590Z,10.40
2022-12-11T13:50:30.621Z,15.70
2022-12-11T13:53:00.215Z,15.50
2022-12-11T13:55:34.227Z,12.67
2022-12-11T13:58:01.786Z,13.57
2022-12-11T14:00:32.256Z,16.77
2022-12-11T14:03:04.576Z,15.93
2022-12-11T14:05:31.797Z,10.17
2022-12-11T14:08:05.421Z,11.40
2022-12-11T14:10:33.068Z,12.73
2022-12-11T14:13:04.265Z,10.43
2022-12-11T14:15:33.775Z,10.27
2022-12-11T14:18:01.369Z,13.80
2022-12-11T14:20:31.132Z,17.13
2022-12-11T14:23:18.857Z,13.47
2022-12-11T14:25:58.833Z,13.48
2022-12-11T14:28:28.354Z,12.87
2022-12-11T14:30:59.354Z,15.20
2022-12-11T14:33:32.642Z,14.80
2022-12-11T14:36:01.534Z,11.03
2022-12-11T14:38:43.384Z,12.63
2022-12-11T14:41:38.508Z,13.33
2022-12-11T14:44:08.217Z,14.17
2022-12-11T14:46:44.004Z,10.40
2022-12-11T14:49:28.726Z,12.53
2022-12-11T14:51:58.582Z,13.97
2022-12-11T14:54:36.484Z,11.07
2022-12-11T14:57:06.718Z,10.47
2022-12-11T14:59:41.456Z,9.30
2022-12-11T15:02:23.462Z,10.82
2022-12-11T15:05:18.343Z,14.65
2022-12-11T15:08:12.672Z,6.67
2022-12-11T15:11:00.989Z,11.13
2022-12-11T15:13:28.436Z,11.43
2022-12-11T15:15:56.334Z,13.00
2022-12-11T15:18:27.178Z,10.43
2022-12-11T15:20:57.842Z,9.63
2022-12-11T15:23:24.840Z,13.07
2022-12-11T15:25:54.264Z,10.07
2022-12-11T15:28:35.276Z,9.87
2022-12-11T15:31:06.932Z,7.93
2022-12-11T15:33:34.851Z,12.55
2022-12-11T15:36:07.399Z,11.73
2022-12-11T15:38:35.735Z,12.77
2022-12-11T15:41:04.158Z,12.97
2022-12-11T15:43:36.196Z,15.93
2022-12-11T15:46:04.481Z,13.33
2022-12-11T15:48:31.471Z,11.40
2022-12-11T15:50:58.579Z,10.93
2022-12-11T15:53:25.554Z,11.73
2022-12-11T15:55:53.141Z,11.63
2022-12-11T15:58:23.288Z,10.27
2022-12-11T16:00:50.776Z,15.80
2022-12-11T16:03:19.688Z,13.67
2022-12-11T16:05:47.401Z,13.17
2022-12-11T16:08:17.297Z,12.60
2022-12-11T16:10:45.665Z,14.60
2022-12-11T16:13:13.525Z,12.37
2022-12-11T16:15:46.240Z,16.27
2022-12-11T16:18:16.572Z,12.60
2022-12-11T16:20:45.295Z,13.00
2022-12-11T16:23:13.398Z,14.47
2022-12-11T16:25:42.541Z,15.80
2022-12-11T16:28:11.768Z,14.83
2022-12-11T16:30:38.908Z,12.27
2022-12-11T16:33:12.005Z,12.30
2022-12-11T16:35:39.845Z,13.77
2022-12-11T16:38:07.936Z,11.13
2022-12-11T16:40:34.760Z,10.40
2022-12-11T16:43:03.770Z,11.10
2022-12-11T16:45:30.822Z,12.23
2022-12-11T16:47:57.780Z,10.60
2022-12-11T16:50:25.557Z,11.10
2022-12-11T16:52:52.478Z,10.30
2022-12-11T16:55:22.358Z,11.53
2022-12-11T16:57:49.547Z,11.87
2022-12-11T17:00:16.745Z,11.30
2022-12-11T17:02:43.806Z,9.45
2022-12-11T17:05:11.373Z,9.13
2022-12-11T17:07:38.735Z,11.33
2022-12-11T17:10:06.027Z,11.02
2022-12-11T17:12:33.046Z,9.80
2022-12-11T17:15:00.078Z,8.83
2022-12-11T17:17:27.244Z,7.33
2022-12-11T17:19:56.059Z,7.53
2022-12-11T17:22:23.056Z,9.47
2022-12-11T17:24:50.001Z,7.03
2022-12-11T17:27:17.048Z,10.93
2022-12-11T17:29:44.030Z,9.00
2022-12-11T17:32:11.543Z,7.17
2022-12-11T17:34:38.868Z,6.82
2022-12-11T17:37:06.530Z,11.43
2022-12-11T17:39:33.667Z,6.87
2022-12-11T17:42:00.848Z,6.23
2022-12-11T17:44:30.729Z,7.78
2022-12-11T17:46:59.045Z,7.60
2022-12-11T17:49:26.864Z,7.50
2022-12-11T17:51:55.442Z,7.22
2022-12-11T17:54:24.240Z,6.60
2022-12-11T17:56:51.702Z,6.70
2022-12-11T17:59:18.684Z,9.17
2022-12-11T18:01:46.081Z,7.65
2022-12-11T18:04:13.229Z,7.03
2022-12-11T18:06:40.268Z,6.00
2022-12-11T18:09:07.458Z,8.93
2022-12-11T18:11:34.898Z,8.60
2022-12-11T18:14:01.863Z,5.80
2022-12-11T18:16:32.915Z,11.02
2022-12-11T18:19:00.074Z,14.95
2022-12-11T18:21:34.247Z,5.78
2022-12-11T18:24:02.493Z,6.47
2022-12-11T18:26:29.444Z,6.72
2022-12-11T18:28:58.605Z,8.60
2022-12-11T18:31:25.651Z,5.28
2022-12-11T18:33:52.984Z,6.53
2022-12-11T18:36:21.431Z,8.90
2022-12-11T18:38:48.767Z,5.80
2022-12-11T18:41:18.036Z,7.57
2022-12-11T18:43:45.639Z,6.03
2022-12-11T18:46:16.336Z,5.57
2022-12-11T18:48:45.535Z,6.88
2022-12-11T18:51:15.672Z,5.43
2022-12-11T18:53:42.644Z,4.60
2022-12-11T18:56:13.356Z,6.47
2022-12-11T18:58:41.351Z,4.07
2022-12-11T19:01:11.101Z,9.73
2022-12-11T19:03:38.175Z,4.90
2022-12-11T19:06:11.054Z,5.20
2022-12-11T19:08:38.456Z,4.85
2022-12-11T19:11:05.880Z,6.90
2022-12-11T19:13:33.845Z,7.80
2022-12-11T19:16:01.697Z,6.63
2022-12-11T19:18:28.781Z,6.13
2022-12-11T19:21:06.435Z,5.75
2022-12-11T19:23:35.908Z,6.40
2022-12-11T19:26:03.135Z,4.70
2022-12-11T19:28:30.356Z,5.15
2022-12-11T19:30:57.317Z,4.90
2022-12-11T19:33:24.327Z,4.47
2022-12-11T19:36:10.923Z,5.90
2022-12-11T19:38:39.735Z,4.90
2022-12-11T19:41:08.710Z,6.72
2022-12-11T19:43:36.806Z,4.97
2022-12-11T19:46:06.150Z,3.55
2022-12-11T19:48:35.148Z,3.67
2022-12-11T19:51:09.817Z,3.20
2022-12-11T19:53:37.164Z,5.15
2022-12-11T19:56:05.574Z,4.93
2022-12-11T19:58:33.261Z,3.65
2022-12-11T20:01:01.243Z,3.75
2022-12-11T20:03:28.463Z,7.45
2022-12-11T20:06:08.244Z,3.83
2022-12-11T20:08:44.622Z,5.40
2022-12-11T20:11:17.641Z,4.63
2022-12-11T20:13:46.697Z,6.15
2022-12-11T20:16:14.907Z,5.00
2022-12-11T20:18:41.921Z,3.67
2022-12-11T20:21:12.840Z,4.00
2022-12-11T20:23:42.193Z,4.55
2022-12-11T20:26:15.080Z,7.15
2022-12-11T20:28:43.901Z,4.68
2022-12-11T20:31:19.681Z,3.63
2022-12-11T20:33:49.329Z,4.47
2022-12-11T20:36:17.758Z,4.57
2022-12-11T20:38:45.317Z,7.20
2022-12-11T20:41:15.024Z,4.30
2022-12-11T20:43:42.786Z,7.15
2022-12-11T20:46:12.884Z,4.60
2022-12-11T20:48:42.557Z,4.30
2022-12-11T20:51:12.367Z,7.05
2022-12-11T20:53:39.945Z,5.35
2022-12-11T20:56:12.403Z,8.07
2022-12-11T20:58:40.406Z,4.80
2022-12-11T21:01:12.969Z,5.88
2022-12-11T21:03:42.134Z,8.30
2022-12-11T21:06:20.507Z,7.15
2022-12-11T21:08:47.476Z,7.28
2022-12-11T21:11:14.444Z,6.28
2022-12-11T21:13:41.474Z,6.93
2022-12-11T21:16:09.908Z,7.45
2022-12-11T21:18:37.041Z,8.43
2022-12-11T21:21:04.595Z,9.38
2022-12-11T21:23:31.870Z,12.27
2022-12-11T21:25:59.092Z,9.70
2022-12-11T21:28:30.571Z,9.80
2022-12-11T21:31:06.404Z,10.50
2022-12-11T21:33:33.561Z,11.15
2022-12-11T21:36:00.738Z,10.90
2022-12-11T21:38:28.445Z,15.63
2022-12-11T21:40:55.570Z,12.95
2022-12-11T21:43:23.224Z,13.80
2022-12-11T21:46:06.495Z,15.70
2022-12-11T21:48:33.774Z,14.95
2022-12-11T21:51:18.937Z,18.17
2022-12-11T21:53:46.462Z,17.65
2022-12-11T21:56:17.981Z,23.48
2022-12-11T21:58:45.451Z,19.65
2022-12-11T22:01:24.025Z,20.08
2022-12-11T22:03:53.111Z,21.05
2022-12-11T22:06:20.821Z,23.90
2022-12-11T22:08:49.273Z,22.73
2022-12-11T22:11:19.006Z,21.92
2022-12-11T22:13:46.300Z,17.48
2022-12-11T22:16:13.252Z,22.58
2022-12-11T22:18:40.256Z,22.42
2022-12-11T22:21:07.397Z,29.65
2022-12-11T22:23:34.636Z,27.45
2022-12-11T22:26:01.512Z,31.48
2022-12-11T22:28:28.432Z,30.98
2022-12-11T22:30:55.405Z,31.23
2022-12-11T22:33:22.370Z,28.38
2022-12-11T22:36:00.161Z,32.47
2022-12-11T22:38:27.071Z,31.05
2022-12-11T22:40:54.897Z,34.38
2022-12-11T22:43:22.218Z,42.40
2022-12-11T22:45:49.396Z,36.15
2022-12-11T22:48:16.367Z,35.50
2022-12-11T22:50:44.469Z,32.78
2022-12-11T22:53:11.782Z,35.75
2022-12-11T22:55:40.075Z,28.98
2022-12-11T22:58:07.421Z,36.25
2022-12-11T23:00:34.837Z,33.35
2022-12-11T23:03:02.822Z,39.08
2022-12-11T23:05:29.966Z,40.33
2022-12-11T23:07:57.146Z,31.27
2022-12-11T23:10:24.398Z,34.17
2022-12-11T23:12:51.519Z,38.50
2022-12-11T23:15:18.861Z,36.78
2022-12-11T23:17:46.010Z,37.25
2022-12-11T23:20:12.959Z,38.80
2022-12-11T23:22:40.214Z,33.10
2022-12-11T23:25:07.624Z,29.95
2022-12-11T23:27:34.578Z,34.42
2022-12-11T23:30:01.578Z,30.73
2022-12-11T23:32:30.638Z,32.85
2022-12-11T23:34:57.551Z,36.08
2022-12-11T23:37:24.693Z,31.02
2022-12-11T23:39:51.632Z,29.33
2022-12-11T23:42:18.552Z,29.67
2022-12-11T23:44:45.444Z,30.08
2022-12-11T23:47:12.599Z,31.75
2022-12-11T23:49:39.616Z,28.85
2022-12-11T23:52:06.661Z,30.35
2022-12-11T23:54:33.617Z,36.20
2022-12-11T23:57:00.679Z,32.53
2022-12-11T23:59:27.626Z,40.05
